createdAt,value
2022-09-28T00:00:29.149Z,94139
2022-09-28T00:01:38.869Z,94143
2022-09-28T00:02:46.666Z,94138
2022-09-28T00:03:55.232Z,94134
2022-09-28T00:05:05.905Z,94135
2022-09-28T00:06:14.632Z,94125
2022-09-28T00:07:24.312Z,94125
2022-09-28T00:08:34.029Z,94124
2022-09-28T00:09:41.706Z,94121
2022-09-28T00:10:51.389Z,94122
2022-09-28T00:12:01.101Z,94126
2022-09-28T00:13:09.752Z,94121
2022-09-28T00:14:18.497Z,94120
2022-09-28T00:15:28.176Z,94117
2022-09-28T00:16:36.922Z,94119
2022-09-28T00:17:46.539Z,94112
2022-09-28T00:18:55.250Z,94114
2022-09-28T00:20:03.939Z,94112
2022-09-28T00:21:13.662Z,94112
2022-09-28T00:22:22.324Z,94103
2022-09-28T00:23:30.997Z,94106
2022-09-28T00:24:40.731Z,94100
2022-09-28T00:25:49.426Z,94102
2022-09-28T00:26:59.167Z,94101
2022-09-28T00:28:06.802Z,94094
2022-09-28T00:29:15.567Z,94090
2022-09-28T00:30:25.269Z,94088
2022-09-28T00:31:33.077Z,94078
2022-09-28T00:32:41.713Z,94080
2022-09-28T00:33:51.387Z,94081
2022-09-28T00:35:00.084Z,94073
2022-09-28T00:36:09.832Z,94070
2022-09-28T00:37:18.512Z,94067
2022-09-28T00:38:28.175Z,94065
2022-09-28T00:39:37.974Z,94068
2022-09-28T00:40:46.691Z,94071
2022-09-28T00:41:55.411Z,94068
2022-09-28T00:43:05.057Z,94061
2022-09-28T00:44:13.744Z,94062
2022-09-28T00:45:23.497Z,94056
2022-09-28T00:46:31.095Z,94055
2022-09-28T00:47:39.698Z,94051
2022-09-28T00:48:48.430Z,94052
2022-09-28T00:49:56.191Z,94055
2022-09-28T00:51:04.883Z,94057
2022-09-28T00:52:13.565Z,94050
2022-09-28T00:53:22.243Z,94050
2022-09-28T00:54:31.948Z,94051
2022-09-28T00:55:40.616Z,94053
2022-09-28T00:56:49.339Z,94047
2022-09-28T00:57:59.035Z,94044
2022-09-28T00:59:07.719Z,94047
2022-09-28T01:00:17.452Z,94051
2022-09-28T01:01:26.228Z,94046
2022-09-28T01:02:35.822Z,94049
2022-09-28T01:03:45.513Z,94045
2022-09-28T01:04:53.164Z,94047
2022-09-28T01:06:02.897Z,94039
2022-09-28T01:07:12.573Z,94044
2022-09-28T01:08:21.325Z,94036
2022-09-28T01:09:30.023Z,94029
2022-09-28T01:10:39.721Z,94029
2022-09-28T01:11:48.599Z,94020
2022-09-28T01:12:58.282Z,94019
2022-09-28T01:14:05.964Z,94018
2022-09-28T01:15:14.635Z,94017
2022-09-28T01:16:24.367Z,94018
2022-09-28T01:17:32.034Z,94021
2022-09-28T01:18:40.760Z,94019
2022-09-28T01:19:50.398Z,94012
2022-09-28T01:20:59.063Z,94010
2022-09-28T01:22:08.828Z,94007
2022-09-28T01:23:17.559Z,94007
2022-09-28T01:24:26.252Z,93992
2022-09-28T01:25:35.919Z,93986
2022-09-28T01:26:43.576Z,93984
2022-09-28T01:27:53.246Z,93989
2022-09-28T01:29:02.960Z,93991
2022-09-28T01:30:11.700Z,93991
2022-09-28T01:31:21.397Z,93993
2022-09-28T01:32:29.043Z,93996
2022-09-28T01:33:37.726Z,93994
2022-09-28T01:34:47.511Z,93994
2022-09-28T01:35:56.230Z,93993
2022-09-28T01:37:04.895Z,93988
2022-09-28T01:38:13.577Z,93990
2022-09-28T01:39:22.277Z,93989
2022-09-28T01:40:32.071Z,93981
2022-09-28T01:41:39.677Z,93978
2022-09-28T01:42:48.355Z,93980
2022-09-28T01:43:58.007Z,93969
2022-09-28T01:45:05.695Z,93963
2022-09-28T01:46:14.466Z,93961
2022-09-28T01:47:23.050Z,93963
2022-09-28T01:48:32.744Z,93958
2022-09-28T01:49:42.421Z,93959
2022-09-28T01:50:50.128Z,93949
2022-09-28T01:51:58.787Z,93951
2022-09-28T01:53:08.514Z,93949
2022-09-28T01:54:16.177Z,93946
2022-09-28T01:55:24.844Z,93944
2022-09-28T01:56:33.504Z,93937
2022-09-28T01:57:42.174Z,93934
2022-09-28T01:58:51.902Z,93933
2022-09-28T01:59:59.591Z,93938
2022-09-28T02:01:09.339Z,93938
2022-09-28T02:02:19.037Z,93936
2022-09-28T02:03:28.644Z,93929
2022-09-28T02:04:38.314Z,93928
2022-09-28T02:05:47.985Z,93919
2022-09-28T02:06:55.661Z,93918
2022-09-28T02:08:05.332Z,93915
2022-09-28T02:09:15.112Z,93915
2022-09-28T02:10:24.735Z,93909
2022-09-28T02:11:33.389Z,93899
2022-09-28T02:12:42.082Z,93896
2022-09-28T02:13:50.771Z,93894
2022-09-28T02:15:00.483Z,93893
2022-09-28T02:16:08.174Z,93892
2022-09-28T02:17:17.803Z,93884
2022-09-28T02:18:27.497Z,93892
2022-09-28T02:19:37.203Z,93881
2022-09-28T02:20:45.884Z,93881
2022-09-28T02:21:54.561Z,93884
2022-09-28T02:23:04.403Z,93884
2022-09-28T02:24:18.230Z,93873
2022-09-28T02:25:24.704Z,93879
2022-09-28T02:26:34.377Z,93878
2022-09-28T02:27:44.040Z,93874
2022-09-28T02:28:52.717Z,93875
2022-09-28T02:30:00.397Z,93867
2022-09-28T02:31:09.112Z,93873
2022-09-28T02:32:17.766Z,93871
2022-09-28T02:33:27.453Z,93871
2022-09-28T02:34:36.142Z,93865
2022-09-28T02:35:45.803Z,93865
2022-09-28T02:36:55.500Z,93865
2022-09-28T02:38:03.179Z,93860
2022-09-28T02:39:11.920Z,93855
2022-09-28T02:40:21.639Z,93855
2022-09-28T02:41:30.264Z,93855
2022-09-28T02:42:39.967Z,93852
2022-09-28T02:43:47.656Z,93854
2022-09-28T02:44:56.335Z,93852
2022-09-28T02:46:06.100Z,93846
2022-09-28T02:47:14.709Z,93844
2022-09-28T02:48:41.485Z,93850
2022-09-28T02:49:35.105Z,93850
2022-09-28T02:50:44.792Z,93848
2022-09-28T02:51:54.484Z,93841
2022-09-28T02:53:02.223Z,93838
2022-09-28T02:54:14.404Z,93838
2022-09-28T02:55:21.614Z,93831
2022-09-28T02:56:30.285Z,93830
2022-09-28T02:57:37.955Z,93832
2022-09-28T02:58:46.622Z,93830
2022-09-28T02:59:55.371Z,93830
2022-09-28T03:01:05.009Z,93823
2022-09-28T03:02:12.696Z,93826
2022-09-28T03:03:21.339Z,93824
2022-09-28T03:04:31.056Z,93818
2022-09-28T03:05:38.834Z,93813
2022-09-28T03:06:47.671Z,93811
2022-09-28T03:07:56.390Z,93812
2022-09-28T03:09:06.091Z,93810
2022-09-28T03:10:15.821Z,93809
2022-09-28T03:11:24.497Z,93803
2022-09-28T03:12:33.302Z,93807
2022-09-28T03:13:43.048Z,93805
2022-09-28T03:14:51.720Z,93805
2022-09-28T03:16:01.667Z,93802
2022-09-28T03:17:10.276Z,93800
2022-09-28T03:18:19.027Z,93796
2022-09-28T03:19:28.734Z,93797
2022-09-28T03:20:37.416Z,93797
2022-09-28T03:21:46.164Z,93802
2022-09-28T03:23:20.021Z,93799
2022-09-28T03:24:06.520Z,93798
2022-09-28T03:25:15.216Z,93797
2022-09-28T03:26:24.881Z,93793
2022-09-28T03:27:33.583Z,93797
2022-09-28T03:28:43.242Z,93800
2022-09-28T03:29:51.934Z,93796
2022-09-28T03:31:01.586Z,93800
2022-09-28T03:32:11.302Z,93798
2022-09-28T03:33:18.991Z,93796
2022-09-28T03:34:27.677Z,93798
2022-09-28T03:35:36.419Z,93793
2022-09-28T03:36:45.092Z,93792
2022-09-28T03:37:54.831Z,93799
2022-09-28T03:39:03.503Z,93790
2022-09-28T03:40:12.164Z,93793
2022-09-28T03:41:21.884Z,93794
2022-09-28T03:42:31.638Z,93788
2022-09-28T03:43:41.481Z,93786
2022-09-28T03:44:51.122Z,93785
2022-09-28T03:45:59.885Z,93784
2022-09-28T03:47:08.510Z,93787
2022-09-28T03:48:20.588Z,93786
2022-09-28T03:49:26.885Z,93783
2022-09-28T03:50:36.562Z,93774
2022-09-28T03:51:44.242Z,93777
2022-09-28T03:52:52.987Z,93781
2022-09-28T03:54:02.676Z,93780
2022-09-28T03:55:11.347Z,93774
2022-09-28T03:56:21.033Z,93778
2022-09-28T03:57:29.704Z,93772
2022-09-28T03:58:39.507Z,93778
2022-09-28T03:59:49.237Z,93770
2022-09-28T04:00:57.922Z,93770
2022-09-28T04:02:06.655Z,93771
2022-09-28T04:03:15.222Z,93771
2022-09-28T04:04:24.002Z,93771
2022-09-28T04:05:32.674Z,93770
2022-09-28T04:06:42.350Z,93763
2022-09-28T04:07:50.011Z,93767
2022-09-28T04:08:58.666Z,93766
2022-09-28T04:10:07.370Z,93759
2022-09-28T04:11:16.019Z,93753
2022-09-28T04:12:25.690Z,93752
2022-09-28T04:13:33.350Z,93757
2022-09-28T04:14:42.017Z,93752
2022-09-28T04:15:51.883Z,93747
2022-09-28T04:17:00.615Z,93746
2022-09-28T04:18:09.334Z,93747
2022-09-28T04:19:18.112Z,93748
2022-09-28T04:20:27.695Z,93746
2022-09-28T04:21:37.402Z,93746
2022-09-28T04:22:45.074Z,93748
2022-09-28T04:23:53.758Z,93746
2022-09-28T04:25:03.430Z,93745
2022-09-28T04:26:13.104Z,93742
2022-09-28T04:27:21.799Z,93741
2022-09-28T04:28:30.508Z,93742
2022-09-28T04:29:39.185Z,93751
2022-09-28T04:30:48.854Z,93756
2022-09-28T04:31:57.610Z,93755
2022-09-28T04:33:07.232Z,93752
2022-09-28T04:34:16.902Z,93752
2022-09-28T04:35:24.602Z,93758
2022-09-28T04:36:33.255Z,93761
2022-09-28T04:37:42.952Z,93767
2022-09-28T04:38:53.366Z,93762
2022-09-28T04:40:01.369Z,93760
2022-09-28T04:41:11.117Z,93756
2022-09-28T04:42:20.819Z,93762
2022-09-28T04:43:30.506Z,93761
2022-09-28T04:44:40.259Z,93759
2022-09-28T04:45:49.996Z,93757
2022-09-28T04:47:01.700Z,93754
2022-09-28T04:48:08.341Z,93759
2022-09-28T04:49:18.188Z,93752
2022-09-28T04:50:25.691Z,93752
2022-09-28T04:51:35.448Z,93749
2022-09-28T04:52:45.147Z,93751
2022-09-28T04:53:53.813Z,93752
2022-09-28T04:55:02.548Z,93753
2022-09-28T04:56:11.261Z,93754
2022-09-28T04:57:20.924Z,93755
2022-09-28T04:58:31.618Z,93756
2022-09-28T04:59:46.406Z,93755
2022-09-28T05:00:58.523Z,93756
2022-09-28T05:02:08.223Z,93754
2022-09-28T05:03:16.930Z,93752
2022-09-28T05:04:26.580Z,93752
2022-09-28T05:05:36.278Z,93758
2022-09-28T05:06:45.975Z,93759
2022-09-28T05:07:55.710Z,93755
2022-09-28T05:09:04.393Z,93760
2022-09-28T05:10:13.093Z,93769
2022-09-28T05:11:22.766Z,93771
2022-09-28T05:12:30.442Z,93767
2022-09-28T05:13:40.199Z,93770
2022-09-28T05:14:49.893Z,93776
2022-09-28T05:16:03.132Z,93777
2022-09-28T05:17:09.396Z,93778
2022-09-28T05:18:18.069Z,93772
2022-09-28T05:19:26.950Z,93776
2022-09-28T05:20:36.620Z,93772
2022-09-28T05:21:44.337Z,93776
2022-09-28T05:22:54.065Z,93773
2022-09-28T05:24:03.858Z,93776
2022-09-28T05:25:13.643Z,93775
2022-09-28T05:26:23.389Z,93779
2022-09-28T05:27:32.091Z,93775
2022-09-28T05:28:40.746Z,93773
2022-09-28T05:29:50.451Z,93769
2022-09-28T05:30:58.131Z,93765
2022-09-28T05:32:06.863Z,93763
2022-09-28T05:33:15.523Z,93762
2022-09-28T05:34:24.219Z,93756
2022-09-28T05:35:33.958Z,93755
2022-09-28T05:36:42.629Z,93753
2022-09-28T05:37:51.316Z,93748
2022-09-28T05:39:00.982Z,93745
2022-09-28T05:40:09.712Z,93749
2022-09-28T05:41:17.422Z,93742
2022-09-28T05:42:26.171Z,93737
2022-09-28T05:43:34.893Z,93732
2022-09-28T05:44:44.573Z,93733
2022-09-28T05:45:55.506Z,93725
2022-09-28T05:47:00.887Z,93726
2022-09-28T05:48:10.605Z,93720
2022-09-28T05:49:19.317Z,93716
2022-09-28T05:50:29.020Z,93718
2022-09-28T05:51:37.716Z,93716
2022-09-28T05:52:47.470Z,93716
2022-09-28T05:53:59.746Z,93716
2022-09-28T05:55:07.803Z,93721
2022-09-28T05:56:17.543Z,93730
2022-09-28T05:57:27.270Z,93731
2022-09-28T05:58:35.014Z,93732
2022-09-28T05:59:43.739Z,93736
2022-09-28T06:00:52.544Z,93742
2022-09-28T06:02:00.297Z,93739
2022-09-28T06:03:09.951Z,93731
2022-09-28T06:04:19.665Z,93727
2022-09-28T06:05:28.500Z,93724
2022-09-28T06:06:38.199Z,93716
2022-09-28T06:07:46.959Z,93723
2022-09-28T06:08:55.675Z,93718
2022-09-28T06:10:05.392Z,93719
2022-09-28T06:11:13.080Z,93721
2022-09-28T06:12:21.843Z,93714
2022-09-28T06:13:31.635Z,93715
2022-09-28T06:14:39.317Z,93711
2022-09-28T06:15:49.057Z,93708
2022-09-28T06:16:58.875Z,93706
2022-09-28T06:18:08.522Z,93697
2022-09-28T06:19:18.260Z,93690
2022-09-28T06:20:27.977Z,93689
2022-09-28T06:21:37.628Z,93687
2022-09-28T06:22:47.489Z,93687
2022-09-28T06:23:56.204Z,93682
2022-09-28T06:25:04.910Z,93681
2022-09-28T06:26:13.610Z,93672
2022-09-28T06:27:23.281Z,93677
2022-09-28T06:28:33.025Z,93673
2022-09-28T06:29:40.685Z,93676
2022-09-28T06:30:50.482Z,93679
2022-09-28T06:32:00.091Z,93679
2022-09-28T06:33:08.758Z,93677
2022-09-28T06:34:18.164Z,93680
2022-09-28T06:35:26.719Z,93685
2022-09-28T06:36:35.415Z,93676
2022-09-28T06:37:45.109Z,93675
2022-09-28T06:38:53.815Z,93672
2022-09-28T06:40:02.543Z,93668
2022-09-28T06:41:12.249Z,93675
2022-09-28T06:42:20.928Z,93671
2022-09-28T06:43:34.186Z,93671
2022-09-28T06:44:40.274Z,93671
2022-09-28T06:45:48.994Z,93671
2022-09-28T06:46:57.676Z,93677
2022-09-28T06:48:05.345Z,93683
2022-09-28T06:49:18.703Z,93684
2022-09-28T06:50:24.687Z,93687
2022-09-28T06:51:33.438Z,93686
2022-09-28T06:52:42.172Z,93688
2022-09-28T06:53:50.826Z,93687
2022-09-28T06:54:59.512Z,93691
2022-09-28T06:56:08.320Z,93688
2022-09-28T06:57:17.071Z,93686
2022-09-28T06:58:25.770Z,93682
2022-09-28T06:59:35.462Z,93688
2022-09-28T07:00:43.161Z,93686
2022-09-28T07:01:51.908Z,93691
2022-09-28T07:03:00.574Z,93693
2022-09-28T07:04:09.258Z,93691
2022-09-28T07:05:18.935Z,93698
2022-09-28T07:06:28.626Z,93696
2022-09-28T07:07:38.310Z,93690
2022-09-28T07:08:50.612Z,93687
2022-09-28T07:09:58.873Z,93688
2022-09-28T07:11:06.575Z,93689
2022-09-28T07:12:15.385Z,93688
2022-09-28T07:13:45.925Z,93689
2022-09-28T07:14:47.199Z,93687
2022-09-28T07:15:45.396Z,93685
2022-09-28T07:17:10.541Z,93691
2022-09-28T07:18:04.782Z,93689
2022-09-28T07:19:13.408Z,93691
2022-09-28T07:20:23.164Z,93692
2022-09-28T07:21:31.844Z,93691
2022-09-28T07:22:43.214Z,93687
2022-09-28T07:23:53.678Z,93691
2022-09-28T07:24:59.936Z,93690
2022-09-28T07:26:09.784Z,93692
2022-09-28T07:27:20.454Z,93690
2022-09-28T07:28:31.216Z,93693
2022-09-28T07:29:40.915Z,93700
2022-09-28T07:30:49.675Z,93704
2022-09-28T07:31:58.382Z,93703
2022-09-28T07:33:08.071Z,93702
2022-09-28T07:34:16.789Z,93706
2022-09-28T07:35:26.491Z,93705
2022-09-28T07:36:36.291Z,93703
2022-09-28T07:37:44.055Z,93706
2022-09-28T07:38:52.759Z,93703
2022-09-28T07:40:01.473Z,93704
2022-09-28T07:41:11.205Z,93705
2022-09-28T07:42:20.832Z,93706
2022-09-28T07:43:28.622Z,93715
2022-09-28T07:44:37.311Z,93711
2022-09-28T07:45:46.058Z,93714
2022-09-28T07:46:53.739Z,93715
2022-09-28T07:48:02.478Z,93720
2022-09-28T07:49:11.659Z,93723
2022-09-28T07:50:19.847Z,93721
2022-09-28T07:51:29.552Z,93718
2022-09-28T07:52:36.258Z,93722
2022-09-28T07:53:44.940Z,93716
2022-09-28T07:54:54.626Z,93717
2022-09-28T07:56:05.300Z,93722
2022-09-28T07:57:14.980Z,93712
2022-09-28T07:58:24.679Z,93730
2022-09-28T07:59:32.366Z,93728
2022-09-28T08:00:42.131Z,93716
2022-09-28T08:01:51.851Z,93722
2022-09-28T08:02:59.604Z,93722
2022-09-28T08:04:08.303Z,93719
2022-09-28T08:05:18.062Z,93717
2022-09-28T08:06:26.820Z,93725
2022-09-28T08:07:36.504Z,93727
2022-09-28T08:08:45.241Z,93719
2022-09-28T08:09:54.974Z,93716
2022-09-28T08:11:04.669Z,93713
2022-09-28T08:12:13.658Z,93726
2022-09-28T08:13:26.173Z,93727
2022-09-28T08:14:32.993Z,93720
2022-09-28T08:15:41.741Z,93722
2022-09-28T08:16:53.140Z,93724
2022-09-28T08:18:01.971Z,93727
2022-09-28T08:19:09.796Z,93728
2022-09-28T08:20:19.411Z,93730
2022-09-28T08:21:27.083Z,93733
2022-09-28T08:22:35.890Z,93737
2022-09-28T08:23:44.673Z,93734
2022-09-28T08:24:54.359Z,93734
2022-09-28T08:26:04.088Z,93742
2022-09-28T08:27:13.787Z,93731
2022-09-28T08:28:22.493Z,93737
2022-09-28T08:29:32.319Z,93731
2022-09-28T08:30:41.077Z,93731
2022-09-28T08:31:50.779Z,93733
2022-09-28T08:33:01.428Z,93742
2022-09-28T08:34:11.159Z,93735
2022-09-28T08:35:20.838Z,93735
2022-09-28T08:36:28.539Z,93736
2022-09-28T08:37:38.217Z,93739
2022-09-28T08:38:48.901Z,93738
2022-09-28T08:39:58.613Z,93740
2022-09-28T08:41:07.362Z,93743
2022-09-28T08:42:17.077Z,93745
2022-09-28T08:43:25.751Z,93735
2022-09-28T08:44:35.501Z,93742
2022-09-28T08:45:44.287Z,93740
2022-09-28T08:46:54.016Z,93739
2022-09-28T08:48:03.676Z,93741
2022-09-28T08:49:24.467Z,93743
2022-09-28T08:50:24.009Z,93745
2022-09-28T08:51:31.697Z,93740
2022-09-28T08:52:40.403Z,93740
2022-09-28T08:53:50.095Z,93742
2022-09-28T08:54:58.845Z,93747
2022-09-28T08:56:07.528Z,93749
2022-09-28T08:57:17.267Z,93750
2022-09-28T08:58:26.006Z,93754
2022-09-28T08:59:35.701Z,93751
2022-09-28T09:00:45.441Z,93758
2022-09-28T09:01:56.437Z,93757
2022-09-28T09:03:04.077Z,93755
2022-09-28T09:04:15.486Z,93762
2022-09-28T09:05:25.537Z,93766
2022-09-28T09:06:34.997Z,93766
2022-09-28T09:07:43.711Z,93765
2022-09-28T09:08:53.529Z,93766
2022-09-28T09:10:02.366Z,93762
2022-09-28T09:11:11.054Z,93763
2022-09-28T09:12:20.758Z,93765
2022-09-28T09:13:28.438Z,93776
2022-09-28T09:14:37.105Z,93779
2022-09-28T09:15:47.082Z,93773
2022-09-28T09:16:59.870Z,93770
2022-09-28T09:18:06.672Z,93775
2022-09-28T09:19:17.291Z,93781
2022-09-28T09:20:26.971Z,93792
2022-09-28T09:21:36.689Z,93806
2022-09-28T09:22:45.393Z,93818
2022-09-28T09:23:54.109Z,93826
2022-09-28T09:25:03.813Z,93835
2022-09-28T09:26:13.837Z,93841
2022-09-28T09:27:22.207Z,93838
2022-09-28T09:28:30.904Z,93848
2022-09-28T09:29:39.608Z,93840
2022-09-28T09:30:49.351Z,93833
2022-09-28T09:31:58.019Z,93835
2022-09-28T09:33:07.753Z,93848
2022-09-28T09:34:17.531Z,93854
2022-09-28T09:35:29.100Z,93845
2022-09-28T09:36:33.852Z,93844
2022-09-28T09:37:42.637Z,93845
2022-09-28T09:38:51.397Z,93839
2022-09-28T09:40:01.081Z,93842
2022-09-28T09:41:08.889Z,93844
2022-09-28T09:42:18.458Z,93843
2022-09-28T09:43:30.893Z,93843
2022-09-28T09:44:36.868Z,93841
2022-09-28T09:45:45.577Z,93850
2022-09-28T09:46:54.280Z,93848
2022-09-28T09:48:02.965Z,93845
2022-09-28T09:49:12.784Z,93849
2022-09-28T09:50:21.514Z,93850
2022-09-28T09:51:31.219Z,93850
2022-09-28T09:52:42.304Z,93855
2022-09-28T09:53:49.668Z,93856
2022-09-28T09:54:59.407Z,93862
2022-09-28T09:56:08.181Z,93863
2022-09-28T09:57:17.901Z,93867
2022-09-28T09:58:26.597Z,93858
2022-09-28T09:59:36.298Z,93860
2022-09-28T10:00:44.096Z,93859
2022-09-28T10:01:53.887Z,93860
2022-09-28T10:03:02.591Z,93861
2022-09-28T10:04:12.288Z,93857
2022-09-28T10:05:22.014Z,93855
2022-09-28T10:06:29.734Z,93860
2022-09-28T10:07:43.191Z,93861
2022-09-28T10:08:49.117Z,93869
2022-09-28T10:09:56.848Z,93870
2022-09-28T10:11:06.552Z,93875
2022-09-28T10:12:16.304Z,93877
2022-09-28T10:13:25.040Z,93874
2022-09-28T10:14:34.762Z,93870
2022-09-28T10:15:42.488Z,93870
2022-09-28T10:16:52.315Z,93874
2022-09-28T10:18:01.952Z,93878
2022-09-28T10:19:11.877Z,93879
2022-09-28T10:20:21.553Z,93874
2022-09-28T10:21:31.241Z,93870
2022-09-28T10:22:39.967Z,93872
2022-09-28T10:23:49.789Z,93869
2022-09-28T10:24:57.505Z,93873
2022-09-28T10:26:06.167Z,93881
2022-09-28T10:27:15.883Z,93886
2022-09-28T10:28:24.583Z,93888
2022-09-28T10:29:35.274Z,93892
2022-09-28T10:30:44.107Z,93895
2022-09-28T10:31:53.722Z,93895
2022-09-28T10:33:03.396Z,93901
2022-09-28T10:34:12.051Z,93898
2022-09-28T10:35:20.724Z,93890
2022-09-28T10:36:30.575Z,93891
2022-09-28T10:37:39.243Z,93891
2022-09-28T10:38:48.022Z,93891
2022-09-28T10:39:57.690Z,93890
2022-09-28T10:41:06.404Z,93890
2022-09-28T10:42:16.099Z,93892
2022-09-28T10:43:23.911Z,93887
2022-09-28T10:44:32.638Z,93887
2022-09-28T10:45:42.406Z,93888
2022-09-28T10:46:51.043Z,93892
2022-09-28T10:48:00.731Z,93898
2022-09-28T10:49:09.416Z,93902
2022-09-28T10:50:18.106Z,93897
2022-09-28T10:51:27.796Z,93904
2022-09-28T10:52:37.597Z,93909
2022-09-28T10:53:46.433Z,93911
2022-09-28T10:54:56.147Z,93917
2022-09-28T10:56:03.842Z,93915
2022-09-28T10:57:13.622Z,93912
2022-09-28T10:58:23.314Z,93910
2022-09-28T10:59:33.075Z,93904
2022-09-28T11:00:42.787Z,93908
2022-09-28T11:01:52.503Z,93907
2022-09-28T11:03:01.268Z,93902
2022-09-28T11:04:10.995Z,93895
2022-09-28T11:05:19.641Z,93894
2022-09-28T11:06:29.375Z,93898
2022-09-28T11:07:39.038Z,93896
2022-09-28T11:08:47.733Z,93887
2022-09-28T11:09:57.388Z,93887
2022-09-28T11:11:05.109Z,93887
2022-09-28T11:12:14.793Z,93890
2022-09-28T11:13:24.478Z,93891
2022-09-28T11:14:33.270Z,93890
2022-09-28T11:15:43.916Z,93896
2022-09-28T11:16:52.978Z,93897
2022-09-28T11:18:01.641Z,93893
2022-09-28T11:19:11.392Z,93892
2022-09-28T11:20:26.187Z,93895
2022-09-28T11:21:31.781Z,93902
2022-09-28T11:22:41.575Z,93907
2022-09-28T11:23:51.251Z,93910
2022-09-28T11:24:59.952Z,93915
2022-09-28T11:26:09.705Z,93915
2022-09-28T11:27:20.385Z,93910
2022-09-28T11:28:30.116Z,93904
2022-09-28T11:29:37.879Z,93896
2022-09-28T11:30:47.663Z,93901
2022-09-28T11:31:57.310Z,93901
2022-09-28T11:33:06.040Z,93903
2022-09-28T11:34:15.894Z,93908
2022-09-28T11:35:25.463Z,93906
2022-09-28T11:36:34.213Z,93907
2022-09-28T11:37:43.876Z,93908
2022-09-28T11:38:51.574Z,93909
2022-09-28T11:40:01.371Z,93915
2022-09-28T11:41:11.108Z,93918
2022-09-28T11:42:18.831Z,93921
2022-09-28T11:43:27.521Z,93913
2022-09-28T11:44:37.252Z,93915
2022-09-28T11:45:45.958Z,93912
2022-09-28T11:46:54.617Z,93907
2022-09-28T11:48:02.355Z,93893
2022-09-28T11:49:12.026Z,93894
2022-09-28T11:50:23.990Z,93899
2022-09-28T11:51:29.408Z,93899
2022-09-28T11:52:38.076Z,93904
2022-09-28T11:53:47.908Z,93901
2022-09-28T11:54:57.618Z,93906
2022-09-28T11:56:08.653Z,93910
2022-09-28T11:57:14.030Z,93915
2022-09-28T11:58:23.868Z,93917
2022-09-28T11:59:32.559Z,93918
2022-09-28T12:00:41.279Z,93922
2022-09-28T12:01:50.944Z,93925
2022-09-28T12:03:00.868Z,93924
2022-09-28T12:04:10.535Z,93925
2022-09-28T12:05:21.007Z,93935
2022-09-28T12:06:28.797Z,93932
2022-09-28T12:07:38.560Z,93930
2022-09-28T12:08:48.318Z,93925
2022-09-28T12:09:57.098Z,93922
2022-09-28T12:11:06.823Z,93921
2022-09-28T12:12:15.520Z,93923
2022-09-28T12:13:25.259Z,93918
2022-09-28T12:14:34.967Z,93918
2022-09-28T12:16:07.687Z,93913
2022-09-28T12:17:10.755Z,93906
2022-09-28T12:18:06.200Z,93913
2022-09-28T12:19:15.820Z,93909
2022-09-28T12:20:24.534Z,93907
2022-09-28T12:21:33.244Z,93904
2022-09-28T12:22:43.034Z,93904
2022-09-28T12:23:52.771Z,93902
2022-09-28T12:25:01.422Z,93903
2022-09-28T12:26:11.244Z,93903
2022-09-28T12:27:19.940Z,93907
2022-09-28T12:28:28.694Z,93915
2022-09-28T12:29:38.334Z,93916
2022-09-28T12:30:48.091Z,93921
2022-09-28T12:31:56.946Z,93923
2022-09-28T12:33:06.612Z,93917
2022-09-28T12:34:15.335Z,93919
2022-09-28T12:35:25.022Z,93911
2022-09-28T12:36:33.789Z,93909
2022-09-28T12:37:42.527Z,93904
2022-09-28T12:39:08.719Z,93911
2022-09-28T12:40:04.426Z,93909
2022-09-28T12:41:12.661Z,93908
2022-09-28T12:42:22.443Z,93913
2022-09-28T12:43:32.263Z,93919
2022-09-28T12:44:40.924Z,93926
2022-09-28T12:46:10.303Z,93932
2022-09-28T12:47:00.339Z,93934
2022-09-28T12:48:09.995Z,93933
2022-09-28T12:50:52.736Z,93932
2022-09-28T12:51:40.083Z,93919
2022-09-28T12:52:49.849Z,93923
2022-09-28T12:53:59.560Z,93916
2022-09-28T12:56:20.833Z,93917
2022-09-28T12:57:26.752Z,93917
2022-09-28T12:58:35.488Z,93918
2022-09-28T12:59:45.309Z,93922
2022-09-28T13:00:54.012Z,93914
2022-09-28T13:02:03.813Z,93910
2022-09-28T13:03:13.461Z,93914
2022-09-28T13:04:22.208Z,93918
2022-09-28T13:05:31.983Z,93917
2022-09-28T13:06:40.707Z,93920
2022-09-28T13:07:49.408Z,93922
2022-09-28T13:08:59.119Z,93921
2022-09-28T13:10:07.855Z,93919
2022-09-28T13:11:16.579Z,93924
2022-09-28T13:12:26.316Z,93925
2022-09-28T13:13:36.015Z,93916
2022-09-28T13:14:45.749Z,93914
2022-09-28T13:15:55.580Z,93914
2022-09-28T13:17:04.227Z,93915
2022-09-28T13:18:13.965Z,93915
2022-09-28T13:19:21.651Z,93917
2022-09-28T13:20:31.369Z,93915
2022-09-28T13:21:40.091Z,93915
2022-09-28T13:22:49.768Z,93916
2022-09-28T13:24:08.958Z,93914
2022-09-28T13:25:10.269Z,93916
2022-09-28T13:26:18.962Z,93918
2022-09-28T13:27:28.663Z,93914
2022-09-28T13:28:37.351Z,93908
2022-09-28T13:29:46.134Z,93915
2022-09-28T13:30:54.930Z,93914
2022-09-28T13:32:03.528Z,93914
2022-09-28T13:33:13.216Z,93917
2022-09-28T13:34:20.918Z,93920
2022-09-28T13:35:29.671Z,93918
2022-09-28T13:36:39.372Z,93920
2022-09-28T13:37:50.027Z,93918
2022-09-28T13:38:58.808Z,93920
2022-09-28T13:40:07.499Z,93922
2022-09-28T13:41:17.215Z,93923
2022-09-28T13:42:26.910Z,93913
2022-09-28T13:43:34.634Z,93915
2022-09-28T13:44:44.376Z,93914
2022-09-28T13:45:54.089Z,93919
2022-09-28T13:47:04.028Z,93924
2022-09-28T13:48:12.690Z,93922
2022-09-28T13:49:21.434Z,93923
2022-09-28T13:50:31.192Z,93922
2022-09-28T13:51:40.901Z,93927
2022-09-28T13:52:48.625Z,93928
2022-09-28T13:53:58.358Z,93934
2022-09-28T13:55:08.060Z,93936
2022-09-28T13:56:15.789Z,93934
2022-09-28T13:57:24.568Z,93938
2022-09-28T13:58:33.274Z,93941
2022-09-28T13:59:41.937Z,93939
2022-09-28T14:00:51.646Z,93938
2022-09-28T14:02:02.961Z,93935
2022-09-28T14:03:09.096Z,93932
2022-09-28T14:04:18.921Z,93930
2022-09-28T14:05:26.493Z,93929
2022-09-28T14:06:36.200Z,93931
2022-09-28T14:07:45.844Z,93929
2022-09-28T14:08:55.532Z,93927
2022-09-28T14:10:05.224Z,93925
2022-09-28T14:11:14.905Z,93924
2022-09-28T14:12:23.618Z,93931
2022-09-28T14:13:33.311Z,93926
2022-09-28T14:14:41.013Z,93923
2022-09-28T14:15:50.744Z,93924
2022-09-28T14:16:59.442Z,93929
2022-09-28T14:18:09.176Z,93927
2022-09-28T14:19:19.005Z,93927
2022-09-28T14:20:27.526Z,93926
2022-09-28T14:21:36.229Z,93927
2022-09-28T14:22:44.912Z,93924
2022-09-28T14:23:57.519Z,93925
2022-09-28T14:25:03.256Z,93922
2022-09-28T14:26:10.915Z,93927
2022-09-28T14:27:20.626Z,93924
2022-09-28T14:28:30.307Z,93929
2022-09-28T14:29:40.003Z,93926
2022-09-28T14:30:48.778Z,93928
2022-09-28T14:31:57.401Z,93930
2022-09-28T14:33:05.087Z,93927
2022-09-28T14:34:13.762Z,93928
2022-09-28T14:35:23.500Z,93929
2022-09-28T14:36:33.167Z,93927
2022-09-28T14:37:42.866Z,93931
2022-09-28T14:38:52.620Z,93930
2022-09-28T14:40:00.380Z,93929
2022-09-28T14:41:10.177Z,93929
2022-09-28T14:42:18.808Z,93929
2022-09-28T14:43:27.487Z,93933
2022-09-28T14:44:38.192Z,93938
2022-09-28T14:45:47.962Z,93934
2022-09-28T14:46:56.607Z,93926
2022-09-28T14:48:06.273Z,93925
2022-09-28T14:49:15.975Z,93932
2022-09-28T14:50:25.738Z,93930
2022-09-28T14:51:34.450Z,93932
2022-09-28T14:52:44.100Z,93937